sensor_id;sensor_type;location;lat;lon;timestamp;pressure;altitude;pressure_sealevel;temperature;humidity
39455;BME280;25155;41.890;23.446;2022-11-11T00:00:59;92923.41;;;5.79;60.55
39455;BME280;25155;41.890;23.446;2022-11-11T00:03:26;92924.00;;;5.81;60.57
39455;BME280;25155;41.890;23.446;2022-11-11T00:05:54;92927.41;;;5.81;60.69
39455;BME280;25155;41.890;23.446;2022-11-11T00:08:21;92924.59;;;5.83;60.49
39455;BME280;25155;41.890;23.446;2022-11-11T00:10:48;92927.19;;;5.83;60.72
39455;BME280;25155;41.890;23.446;2022-11-11T00:13:17;92923.41;;;5.79;60.68
39455;BME280;25155;41.890;23.446;2022-11-11T00:15:44;92923.00;;;5.82;61.10
39455;BME280;25155;41.890;23.446;2022-11-11T00:18:11;92928.00;;;5.77;61.69
39455;BME280;25155;41.890;23.446;2022-11-11T00:20:59;92929.47;;;5.66;62.95
39455;BME280;25155;41.890;23.446;2022-11-11T00:23:43;92932.72;;;5.54;64.19
39455;BME280;25155;41.890;23.446;2022-11-11T00:26:28;92931.97;;;5.41;64.90
39455;BME280;25155;41.890;23.446;2022-11-11T00:28:57;92926.63;;;5.35;64.65
39455;BME280;25155;41.890;23.446;2022-11-11T00:31:24;92923.63;;;5.39;63.81
39455;BME280;25155;41.890;23.446;2022-11-11T00:33:52;92917.69;;;5.38;63.72
39455;BME280;25155;41.890;23.446;2022-11-11T00:36:19;92914.28;;;5.38;63.46
39455;BME280;25155;41.890;23.446;2022-11-11T00:38:45;92906.72;;;5.36;63.07
39455;BME280;25155;41.890;23.446;2022-11-11T00:41:15;92897.78;;;5.32;63.18
39455;BME280;25155;41.890;23.446;2022-11-11T00:43:44;92907.94;;;5.33;63.16
39455;BME280;25155;41.890;23.446;2022-11-11T00:46:14;92904.78;;;5.31;63.09
39455;BME280;25155;41.890;23.446;2022-11-11T00:48:59;92898.59;;;5.32;62.95
39455;BME280;25155;41.890;23.446;2022-11-11T00:51:44;92904.38;;;5.28;63.32
39455;BME280;25155;41.890;23.446;2022-11-11T00:54:12;92897.81;;;5.25;63.04
39455;BME280;25155;41.890;23.446;2022-11-11T00:56:39;92902.81;;;5.20;63.01
39455;BME280;25155;41.890;23.446;2022-11-11T00:59:07;92895.09;;;5.13;63.13
39455;BME280;25155;41.890;23.446;2022-11-11T01:01:37;92903.25;;;5.10;62.97
39455;BME280;25155;41.890;23.446;2022-11-11T01:04:04;92898.13;;;5.04;63.16
39455;BME280;25155;41.890;23.446;2022-11-11T01:06:32;92905.09;;;5.03;62.98
39455;BME280;25155;41.890;23.446;2022-11-11T01:09:04;92908.28;;;4.98;63.03
39455;BME280;25155;41.890;23.446;2022-11-11T01:11:31;92900.94;;;4.95;63.53
39455;BME280;25155;41.890;23.446;2022-11-11T01:13:59;92896.75;;;4.94;63.57
39455;BME280;25155;41.890;23.446;2022-11-11T01:16:26;92895.97;;;4.94;63.14
39455;BME280;25155;41.890;23.446;2022-11-11T01:18:55;92899.94;;;4.90;63.29
39455;BME280;25155;41.890;23.446;2022-11-11T01:21:24;92903.53;;;4.89;62.77
39455;BME280;25155;41.890;23.446;2022-11-11T01:23:52;92896.97;;;4.86;63.12
39455;BME280;25155;41.890;23.446;2022-11-11T01:26:21;92894.59;;;4.85;63.13
39455;BME280;25155;41.890;23.446;2022-11-11T01:28:49;92895.19;;;4.87;62.99
39455;BME280;25155;41.890;23.446;2022-11-11T01:31:18;92889.81;;;4.88;62.90
39455;BME280;25155;41.890;23.446;2022-11-11T01:33:46;92891.22;;;4.84;62.68
39455;BME280;25155;41.890;23.446;2022-11-11T01:36:17;92897.81;;;4.80;62.87
39455;BME280;25155;41.890;23.446;2022-11-11T01:38:47;92905.19;;;4.50;63.34
39455;BME280;25155;41.890;23.446;2022-11-11T01:41:18;92907.38;;;4.66;63.02
39455;BME280;25155;41.890;23.446;2022-11-11T01:44:13;92889.06;;;4.68;62.87
39455;BME280;25155;41.890;23.446;2022-11-11T01:46:46;92896.25;;;4.66;62.97
39455;BME280;25155;41.890;23.446;2022-11-11T01:49:21;92892.88;;;4.65;62.52
39455;BME280;25155;41.890;23.446;2022-11-11T01:51:56;92901.81;;;4.62;62.64
39455;BME280;25155;41.890;23.446;2022-11-11T01:54:31;92906.78;;;4.57;62.98
39455;BME280;25155;41.890;23.446;2022-11-11T01:57:03;92905.56;;;4.60;62.86
39455;BME280;25155;41.890;23.446;2022-11-11T01:59:33;92905.19;;;4.63;62.69
39455;BME280;25155;41.890;23.446;2022-11-11T02:02:06;92900.22;;;4.61;62.86
39455;BME280;25155;41.890;23.446;2022-11-11T02:04:35;92906.38;;;4.60;62.60
39455;BME280;25155;41.890;23.446;2022-11-11T02:07:23;92904.59;;;4.54;62.82
39455;BME280;25155;41.890;23.446;2022-11-11T02:09:52;92897.63;;;4.55;63.07
39455;BME280;25155;41.890;23.446;2022-11-11T02:12:20;92898.03;;;4.52;63.14
39455;BME280;25155;41.890;23.446;2022-11-11T02:15:06;92895.47;;;4.45;63.10
39455;BME280;25155;41.890;23.446;2022-11-11T02:17:33;92900.06;;;4.43;63.91
39455;BME280;25155;41.890;23.446;2022-11-11T02:20:02;92908.22;;;4.27;64.44
39455;BME280;25155;41.890;23.446;2022-11-11T02:22:40;92903.88;;;4.20;64.06
39455;BME280;25155;41.890;23.446;2022-11-11T02:25:12;92910.41;;;4.23;63.86
39455;BME280;25155;41.890;23.446;2022-11-11T02:27:42;92908.41;;;4.18;63.77
39455;BME280;25155;41.890;23.446;2022-11-11T02:30:11;92910.00;;;4.19;64.26
39455;BME280;25155;41.890;23.446;2022-11-11T02:32:42;92908.41;;;4.18;63.84
39455;BME280;25155;41.890;23.446;2022-11-11T02:35:15;92911.00;;;4.18;63.88
39455;BME280;25155;41.890;23.446;2022-11-11T02:37:45;92908.00;;;4.21;63.79
39455;BME280;25155;41.890;23.446;2022-11-11T02:40:16;92908.81;;;4.22;63.83
39455;BME280;25155;41.890;23.446;2022-11-11T02:42:44;92912.41;;;4.21;63.61
39455;BME280;25155;41.890;23.446;2022-11-11T02:45:10;92918.94;;;4.23;63.58
39455;BME280;25155;41.890;23.446;2022-11-11T02:47:38;92913.38;;;4.20;63.58
39455;BME280;25155;41.890;23.446;2022-11-11T02:50:06;92915.75;;;4.21;63.60
39455;BME280;25155;41.890;23.446;2022-11-11T02:52:33;92917.75;;;4.19;63.53
39455;BME280;25155;41.890;23.446;2022-11-11T02:55:01;92918.94;;;4.17;63.29
39455;BME280;25155;41.890;23.446;2022-11-11T02:57:30;92916.34;;;4.17;63.29
39455;BME280;25155;41.890;23.446;2022-11-11T02:59:58;92919.13;;;4.15;63.35
39455;BME280;25155;41.890;23.446;2022-11-11T03:02:27;92918.75;;;4.12;63.69
39455;BME280;25155;41.890;23.446;2022-11-11T03:04:55;92924.91;;;4.04;63.95
39455;BME280;25155;41.890;23.446;2022-11-11T03:07:23;92922.72;;;4.01;63.76
39455;BME280;25155;41.890;23.446;2022-11-11T03:09:51;92921.72;;;4.02;63.59
39455;BME280;25155;41.890;23.446;2022-11-11T03:12:18;92923.13;;;3.98;63.19
39455;BME280;25155;41.890;23.446;2022-11-11T03:14:47;92921.91;;;3.94;63.64
39455;BME280;25155;41.890;23.446;2022-11-11T03:17:14;92929.66;;;3.94;63.46
39455;BME280;25155;41.890;23.446;2022-11-11T03:19:59;92910.78;;;3.86;63.94
39455;BME280;25155;41.890;23.446;2022-11-11T03:22:39;92920.13;;;3.87;63.85
39455;BME280;25155;41.890;23.446;2022-11-11T03:25:07;92923.50;;;3.88;63.67
39455;BME280;25155;41.890;23.446;2022-11-11T03:27:52;92900.06;;;3.76;63.44
39455;BME280;25155;41.890;23.446;2022-11-11T03:30:21;92924.28;;;3.88;63.59
39455;BME280;25155;41.890;23.446;2022-11-11T03:32:48;92919.75;;;3.91;63.53
39455;BME280;25155;41.890;23.446;2022-11-11T03:35:16;92920.34;;;3.93;63.48
39455;BME280;25155;41.890;23.446;2022-11-11T03:37:43;92919.75;;;3.91;63.58
39455;BME280;25155;41.890;23.446;2022-11-11T03:40:27;92922.50;;;3.82;64.03
39455;BME280;25155;41.890;23.446;2022-11-11T03:42:55;92927.44;;;3.84;63.58
39455;BME280;25155;41.890;23.446;2022-11-11T03:45:24;92919.94;;;3.82;63.95
39455;BME280;25155;41.890;23.446;2022-11-11T03:47:51;92917.75;;;3.79;63.96
39455;BME280;25155;41.890;23.446;2022-11-11T03:50:19;92924.66;;;3.79;63.69
39455;BME280;25155;41.890;23.446;2022-11-11T03:52:47;92924.06;;;3.77;63.53
39455;BME280;25155;41.890;23.446;2022-11-11T03:55:14;92921.88;;;3.74;63.58
39455;BME280;25155;41.890;23.446;2022-11-11T03:57:45;92909.38;;;3.64;63.72
39455;BME280;25155;41.890;23.446;2022-11-11T04:00:15;92922.06;;;3.72;64.02
39455;BME280;25155;41.890;23.446;2022-11-11T04:02:44;92931.22;;;3.68;63.59
39455;BME280;25155;41.890;23.446;2022-11-11T04:05:28;92927.44;;;3.64;63.61
39455;BME280;25155;41.890;23.446;2022-11-11T04:08:15;92922.63;;;3.54;63.58
39455;BME280;25155;41.890;23.446;2022-11-11T04:11:04;92934.16;;;3.51;63.85
39455;BME280;25155;41.890;23.446;2022-11-11T04:13:32;92931.97;;;3.48;64.14
39455;BME280;25155;41.890;23.446;2022-11-11T04:16:17;92929.72;;;3.25;65.08
39455;BME280;25155;41.890;23.446;2022-11-11T04:18:46;92933.41;;;3.09;65.57
39455;BME280;25155;41.890;23.446;2022-11-11T04:21:31;92948.06;;;3.02;65.33
39455;BME280;25155;41.890;23.446;2022-11-11T04:24:11;92949.66;;;3.03;65.31
39455;BME280;25155;41.890;23.446;2022-11-11T04:26:57;92957.38;;;3.03;65.19
39455;BME280;25155;41.890;23.446;2022-11-11T04:29:25;92962.75;;;3.08;65.03
39455;BME280;25155;41.890;23.446;2022-11-11T04:31:59;92955.03;;;3.08;65.00
39455;BME280;25155;41.890;23.446;2022-11-11T04:34:46;92952.25;;;3.10;64.79
39455;BME280;25155;41.890;23.446;2022-11-11T04:37:14;92943.16;;;3.14;65.03
39455;BME280;25155;41.890;23.446;2022-11-11T04:39:42;92951.47;;;3.16;64.54
39455;BME280;25155;41.890;23.446;2022-11-11T04:42:27;92954.28;;;3.14;64.93
39455;BME280;25155;41.890;23.446;2022-11-11T04:44:56;92957.81;;;3.13;64.63
39455;BME280;25155;41.890;23.446;2022-11-11T04:48:09;92958.00;;;3.05;64.49
39455;BME280;25155;41.890;23.446;2022-11-11T04:50:40;92958.81;;;3.12;64.28
39455;BME280;25155;41.890;23.446;2022-11-11T04:53:12;92952.66;;;3.13;64.22
39455;BME280;25155;41.890;23.446;2022-11-11T04:55:57;92960.97;;;3.09;64.22
39455;BME280;25155;41.890;23.446;2022-11-11T04:58:52;92969.50;;;3.09;64.67
39455;BME280;25155;41.890;23.446;2022-11-11T05:01:48;92981.56;;;3.02;65.57
39455;BME280;25155;41.890;23.446;2022-11-11T05:04:37;92975.22;;;2.98;65.45
39455;BME280;25155;41.890;23.446;2022-11-11T05:07:18;92981.94;;;2.99;64.61
39455;BME280;25155;41.890;23.446;2022-11-11T05:10:19;92980.72;;;2.88;64.32
39455;BME280;25155;41.890;23.446;2022-11-11T05:12:56;92971.91;;;2.76;64.35
39455;BME280;25155;41.890;23.446;2022-11-11T05:15:44;92974.66;;;2.74;64.53
39455;BME280;25155;41.890;23.446;2022-11-11T05:18:30;92984.00;;;2.75;64.44
39455;BME280;25155;41.890;23.446;2022-11-11T05:21:17;92989.09;;;2.69;64.24
39455;BME280;25155;41.890;23.446;2022-11-11T05:23:51;92981.34;;;2.62;64.87
39455;BME280;25155;41.890;23.446;2022-11-11T05:26:50;92994.78;;;2.57;64.82
39455;BME280;25155;41.890;23.446;2022-11-11T05:29:32;92992.38;;;2.56;64.77
39455;BME280;25155;41.890;23.446;2022-11-11T05:32:07;92994.16;;;2.55;64.67
39455;BME280;25155;41.890;23.446;2022-11-11T05:34:47;92995.56;;;2.58;64.50
39455;BME280;25155;41.890;23.446;2022-11-11T05:37:29;93001.91;;;2.55;64.59
39455;BME280;25155;41.890;23.446;2022-11-11T05:40:10;93003.06;;;2.53;65.03
39455;BME280;25155;41.890;23.446;2022-11-11T05:42:41;93003.06;;;2.53;64.87
39455;BME280;25155;41.890;23.446;2022-11-11T05:45:23;93012.78;;;2.57;65.04
39455;BME280;25155;41.890;23.446;2022-11-11T05:48:02;93005.06;;;2.57;64.92
39455;BME280;25155;41.890;23.446;2022-11-11T05:50:30;93005.72;;;2.66;64.95
39455;BME280;25155;41.890;23.446;2022-11-11T05:53:04;93014.13;;;2.75;64.93
39455;BME280;25155;41.890;23.446;2022-11-11T05:55:41;93016.97;;;2.87;65.20
39455;BME280;25155;41.890;23.446;2022-11-11T05:58:09;93016.50;;;3.05;64.98
39455;BME280;25155;41.890;23.446;2022-11-11T06:00:37;93016.19;;;3.21;65.30
39455;BME280;25155;41.890;23.446;2022-11-11T06:03:05;93018.22;;;3.39;65.13
39455;BME280;25155;41.890;23.446;2022-11-11T06:05:35;93013.53;;;3.49;64.78
39455;BME280;25155;41.890;23.446;2022-11-11T06:08:03;93013.56;;;3.63;64.26
39455;BME280;25155;41.890;23.446;2022-11-11T06:10:31;93012.78;;;3.69;64.89
39455;BME280;25155;41.890;23.446;2022-11-11T06:13:00;93026.13;;;3.79;64.92
39455;BME280;25155;41.890;23.446;2022-11-11T06:15:30;93024.75;;;3.90;65.00
39455;BME280;25155;41.890;23.446;2022-11-11T06:17:59;93024.56;;;3.98;65.52
39455;BME280;25155;41.890;23.446;2022-11-11T06:20:30;93034.72;;;4.13;65.80
39455;BME280;25155;41.890;23.446;2022-11-11T06:23:00;93044.69;;;4.23;65.92
39455;BME280;25155;41.890;23.446;2022-11-11T06:25:29;93047.66;;;4.20;66.39
39455;BME280;25155;41.890;23.446;2022-11-11T06:28:15;93049.44;;;4.06;66.10
39455;BME280;25155;41.890;23.446;2022-11-11T06:30:43;93050.19;;;3.93;66.59
39455;BME280;25155;41.890;23.446;2022-11-11T06:33:11;93052.88;;;3.72;67.07
39455;BME280;25155;41.890;23.446;2022-11-11T06:35:42;93061.44;;;3.79;67.91
39455;BME280;25155;41.890;23.446;2022-11-11T06:38:11;93063.66;;;3.88;67.59
39455;BME280;25155;41.890;23.446;2022-11-11T06:40:41;93069.88;;;4.07;67.33
39455;BME280;25155;41.890;23.446;2022-11-11T06:43:09;93064.56;;;4.29;66.99
39455;BME280;25155;41.890;23.446;2022-11-11T06:45:39;93070.94;;;4.47;66.71
39455;BME280;25155;41.890;23.446;2022-11-11T06:48:07;93061.44;;;4.60;66.24
39455;BME280;25155;41.890;23.446;2022-11-11T06:50:35;93064.03;;;4.74;66.38
39455;BME280;25155;41.890;23.446;2022-11-11T06:53:03;93055.03;;;4.90;66.08
39455;BME280;25155;41.890;23.446;2022-11-11T06:55:31;93056.84;;;5.03;65.96
39455;BME280;25155;41.890;23.446;2022-11-11T06:58:05;93048.28;;;5.09;65.71
39455;BME280;25155;41.890;23.446;2022-11-11T07:00:32;93043.09;;;5.22;65.71
39455;BME280;25155;41.890;23.446;2022-11-11T07:03:02;93042.06;;;5.36;65.83
39455;BME280;25155;41.890;23.446;2022-11-11T07:05:29;93040.19;;;5.57;65.98
39455;BME280;25155;41.890;23.446;2022-11-11T07:08:00;93037.53;;;5.77;66.45
39455;BME280;25155;41.890;23.446;2022-11-11T07:10:29;93038.84;;;6.00;66.59
39455;BME280;25155;41.890;23.446;2022-11-11T07:12:56;93024.16;;;6.25;66.85
39455;BME280;25155;41.890;23.446;2022-11-11T07:15:24;93011.66;;;6.47;67.01
39455;BME280;25155;41.890;23.446;2022-11-11T07:17:52;93010.13;;;6.65;67.27
39455;BME280;25155;41.890;23.446;2022-11-11T07:20:21;93010.22;;;6.77;66.86
39455;BME280;25155;41.890;23.446;2022-11-11T07:22:48;93009.91;;;6.92;66.88
39455;BME280;25155;41.890;23.446;2022-11-11T07:25:16;93013.59;;;7.02;67.29
39455;BME280;25155;41.890;23.446;2022-11-11T07:27:43;93007.00;;;7.07;67.23
39455;BME280;25155;41.890;23.446;2022-11-11T07:30:11;93012.97;;;7.07;66.82
39455;BME280;25155;41.890;23.446;2022-11-11T07:32:44;93020.47;;;7.15;66.78
39455;BME280;25155;41.890;23.446;2022-11-11T07:35:11;93016.56;;;7.25;66.65
39455;BME280;25155;41.890;23.446;2022-11-11T07:37:41;93022.72;;;7.30;66.97
39455;BME280;25155;41.890;23.446;2022-11-11T07:40:10;93011.69;;;7.35;67.13
39455;BME280;25155;41.890;23.446;2022-11-11T07:42:38;93005.06;;;7.39;66.78
39455;BME280;25155;41.890;23.446;2022-11-11T07:45:07;93014.94;;;7.49;66.70
39455;BME280;25155;41.890;23.446;2022-11-11T07:47:35;93001.75;;;7.50;66.53
39455;BME280;25155;41.890;23.446;2022-11-11T07:50:04;93009.66;;;7.55;66.77
39455;BME280;25155;41.890;23.446;2022-11-11T07:52:32;93008.00;;;7.61;66.73
39455;BME280;25155;41.890;23.446;2022-11-11T07:55:00;93007.91;;;7.68;67.00
39455;BME280;25155;41.890;23.446;2022-11-11T07:57:28;92998.97;;;7.82;66.73
39455;BME280;25155;41.890;23.446;2022-11-11T07:59:55;92994.03;;;7.92;66.17
39455;BME280;25155;41.890;23.446;2022-11-11T08:02:23;92994.34;;;7.84;64.85
39455;BME280;25155;41.890;23.446;2022-11-11T08:05:24;93008.81;;;7.62;65.02
39455;BME280;25155;41.890;23.446;2022-11-11T08:08:32;93019.69;;;7.52;66.02
39455;BME280;25155;41.890;23.446;2022-11-11T08:11:01;93010.53;;;7.49;66.44
39455;BME280;25155;41.890;23.446;2022-11-11T08:13:30;92998.44;;;7.43;66.79
39455;BME280;25155;41.890;23.446;2022-11-11T08:16:06;92998.50;;;7.36;67.56
39455;BME280;25155;41.890;23.446;2022-11-11T08:18:34;92991.94;;;7.34;67.73
39455;BME280;25155;41.890;23.446;2022-11-11T08:21:03;93004.13;;;7.33;67.60
39455;BME280;25155;41.890;23.446;2022-11-11T08:23:47;93007.16;;;7.30;67.84
39455;BME280;25155;41.890;23.446;2022-11-11T08:26:19;92967.06;;;7.08;68.12
39455;BME280;25155;41.890;23.446;2022-11-11T08:28:50;93008.97;;;7.48;68.52
39455;BME280;25155;41.890;23.446;2022-11-11T08:31:17;93009.44;;;7.57;68.23
39455;BME280;25155;41.890;23.446;2022-11-11T08:36:56;93006.91;;;7.69;68.37
39455;BME280;25155;41.890;23.446;2022-11-11T08:39:24;93011.94;;;7.82;68.52
39455;BME280;25155;41.890;23.446;2022-11-11T08:41:54;93006.22;;;7.92;68.08
39455;BME280;25155;41.890;23.446;2022-11-11T08:44:21;93010.59;;;8.10;68.11
39455;BME280;25155;41.890;23.446;2022-11-11T08:46:49;93014.03;;;8.22;67.81
39455;BME280;25155;41.890;23.446;2022-11-11T08:49:16;93022.53;;;8.29;67.58
39455;BME280;25155;41.890;23.446;2022-11-11T08:51:45;93016.44;;;8.36;67.59
39455;BME280;25155;41.890;23.446;2022-11-11T08:54:12;93024.75;;;8.44;67.25
39455;BME280;25155;41.890;23.446;2022-11-11T08:56:39;93018.91;;;8.49;66.72
39455;BME280;25155;41.890;23.446;2022-11-11T08:59:09;93020.25;;;8.52;67.01
39455;BME280;25155;41.890;23.446;2022-11-11T09:01:40;93021.41;;;8.56;66.87
39455;BME280;25155;41.890;23.446;2022-11-11T09:04:09;93021.84;;;8.64;66.74
39455;BME280;25155;41.890;23.446;2022-11-11T09:06:37;93012.56;;;8.68;66.67
39455;BME280;25155;41.890;23.446;2022-11-11T09:09:08;93009.19;;;8.68;66.40
39455;BME280;25155;41.890;23.446;2022-11-11T09:11:35;93012.13;;;8.72;66.31
39455;BME280;25155;41.890;23.446;2022-11-11T09:14:02;93010.09;;;8.74;66.16
39455;BME280;25155;41.890;23.446;2022-11-11T09:16:31;93013.72;;;8.73;66.00
39455;BME280;25155;41.890;23.446;2022-11-11T09:18:58;93008.53;;;8.73;65.53
39455;BME280;25155;41.890;23.446;2022-11-11T09:21:26;93007.25;;;8.75;65.29
39455;BME280;25155;41.890;23.446;2022-11-11T09:23:53;93010.13;;;8.85;65.68
39455;BME280;25155;41.890;23.446;2022-11-11T09:26:20;93011.03;;;9.03;65.82
39455;BME280;25155;41.890;23.446;2022-11-11T09:28:47;92999.72;;;9.21;65.50
39455;BME280;25155;41.890;23.446;2022-11-11T09:31:15;92993.13;;;9.42;65.24
39455;BME280;25155;41.890;23.446;2022-11-11T09:33:43;92987.31;;;9.64;64.64
39455;BME280;25155;41.890;23.446;2022-11-11T09:36:11;92978.41;;;9.88;64.38
39455;BME280;25155;41.890;23.446;2022-11-11T09:38:38;92978.75;;;10.09;63.85
39455;BME280;25155;41.890;23.446;2022-11-11T09:41:20;92974.94;;;10.28;63.10
39455;BME280;25155;41.890;23.446;2022-11-11T09:43:53;92966.22;;;10.51;63.77
39455;BME280;25155;41.890;23.446;2022-11-11T09:46:35;92956.72;;;10.79;63.72
39455;BME280;25155;41.890;23.446;2022-11-11T09:49:17;92957.97;;;11.11;63.58
39455;BME280;25155;41.890;23.446;2022-11-11T09:51:52;92953.31;;;11.35;60.91
39455;BME280;25155;41.890;23.446;2022-11-11T09:54:36;92954.59;;;11.54;60.68
39455;BME280;25155;41.890;23.446;2022-11-11T09:57:21;92948.63;;;11.81;60.55
39455;BME280;25155;41.890;23.446;2022-11-11T10:00:12;92941.59;;;12.04;59.92
39455;BME280;25155;41.890;23.446;2022-11-11T10:02:45;92947.03;;;12.29;59.36
39455;BME280;25155;41.890;23.446;2022-11-11T10:05:20;92940.91;;;12.46;56.15
39455;BME280;25155;41.890;23.446;2022-11-11T10:07:51;92941.25;;;12.54;56.86
39455;BME280;25155;41.890;23.446;2022-11-11T10:10:25;92936.91;;;12.70;57.82
39455;BME280;25155;41.890;23.446;2022-11-11T10:12:56;92943.84;;;12.87;55.27
39455;BME280;25155;41.890;23.446;2022-11-11T10:15:28;92938.63;;;12.92;56.12
39455;BME280;25155;41.890;23.446;2022-11-11T10:18:16;92929.81;;;13.03;55.96
39455;BME280;25155;41.890;23.446;2022-11-11T10:20:51;92933.06;;;13.21;55.40
39455;BME280;25155;41.890;23.446;2022-11-11T10:23:24;92931.25;;;13.32;56.01
39455;BME280;25155;41.890;23.446;2022-11-11T10:25:54;92933.47;;;13.50;56.39
39455;BME280;25155;41.890;23.446;2022-11-11T10:28:25;92926.44;;;13.61;56.44
39455;BME280;25155;41.890;23.446;2022-11-11T10:30:54;92919.69;;;13.75;55.94
39455;BME280;25155;41.890;23.446;2022-11-11T10:33:26;92918.38;;;13.83;55.43
39455;BME280;25155;41.890;23.446;2022-11-11T10:35:57;92918.41;;;13.88;54.57
39455;BME280;25155;41.890;23.446;2022-11-11T10:38:33;92913.91;;;13.83;53.83
39455;BME280;25155;41.890;23.446;2022-11-11T10:41:08;92909.50;;;13.84;54.01
39455;BME280;25155;41.890;23.446;2022-11-11T10:43:38;92905.56;;;13.92;53.44
39455;BME280;25155;41.890;23.446;2022-11-11T10:46:10;92904.00;;;14.01;54.03
39455;BME280;25155;41.890;23.446;2022-11-11T10:48:45;92901.41;;;14.11;53.41
39455;BME280;25155;41.890;23.446;2022-11-11T10:51:19;92893.53;;;14.16;53.74
39455;BME280;25155;41.890;23.446;2022-11-11T10:53:54;92893.28;;;14.23;53.95
39455;BME280;25155;41.890;23.446;2022-11-11T10:56:27;92888.84;;;14.29;54.26
39455;BME280;25155;41.890;23.446;2022-11-11T10:58:59;92881.22;;;14.32;53.25
39455;BME280;25155;41.890;23.446;2022-11-11T11:01:32;92877.56;;;14.38;53.53
39455;BME280;25155;41.890;23.446;2022-11-11T11:04:04;92873.59;;;14.46;53.65
39455;BME280;25155;41.890;23.446;2022-11-11T11:06:38;92870.47;;;14.49;53.76
39455;BME280;25155;41.890;23.446;2022-11-11T11:09:14;92865.22;;;14.60;54.19
39455;BME280;25155;41.890;23.446;2022-11-11T11:11:46;92861.81;;;14.69;52.19
39455;BME280;25155;41.890;23.446;2022-11-11T11:14:19;92852.59;;;14.77;53.68
39455;BME280;25155;41.890;23.446;2022-11-11T11:16:50;92853.13;;;14.79;53.05
39455;BME280;25155;41.890;23.446;2022-11-11T11:19:21;92843.69;;;14.78;53.37
39455;BME280;25155;41.890;23.446;2022-11-11T11:21:53;92846.56;;;14.76;53.12
39455;BME280;25155;41.890;23.446;2022-11-11T11:24:21;92840.56;;;14.40;52.67
39455;BME280;25155;41.890;23.446;2022-11-11T11:26:51;92835.03;;;14.62;52.36
39455;BME280;25155;41.890;23.446;2022-11-11T11:29:27;92836.31;;;14.54;49.82
39455;BME280;25155;41.890;23.446;2022-11-11T11:31:55;92830.06;;;14.45;51.10
39455;BME280;25155;41.890;23.446;2022-11-11T11:34:42;92824.28;;;14.43;52.07
39455;BME280;25155;41.890;23.446;2022-11-11T11:37:11;92824.28;;;14.43;52.61
39455;BME280;25155;41.890;23.446;2022-11-11T11:39:39;92823.75;;;14.36;52.88
39455;BME280;25155;41.890;23.446;2022-11-11T11:42:28;92826.09;;;14.07;53.75
39455;BME280;25155;41.890;23.446;2022-11-11T11:44:57;92821.38;;;13.98;54.19
39455;BME280;25155;41.890;23.446;2022-11-11T11:47:46;92821.09;;;13.69;55.31
39455;BME280;25155;41.890;23.446;2022-11-11T11:50:29;92816.63;;;13.54;55.49
39455;BME280;25155;41.890;23.446;2022-11-11T11:53:08;92815.00;;;13.48;56.67
39455;BME280;25155;41.890;23.446;2022-11-11T11:55:43;92811.31;;;13.39;57.22
39455;BME280;25155;41.890;23.446;2022-11-11T11:58:34;92819.72;;;13.36;57.66
39455;BME280;25155;41.890;23.446;2022-11-11T12:01:05;92815.00;;;13.38;57.25
39455;BME280;25155;41.890;23.446;2022-11-11T12:06:45;92802.88;;;13.26;57.91
39455;BME280;25155;41.890;23.446;2022-11-11T12:09:26;92804.72;;;13.26;57.94
39455;BME280;25155;41.890;23.446;2022-11-11T12:12:03;92813.09;;;13.23;57.98
39455;BME280;25155;41.890;23.446;2022-11-11T12:14:49;92804.91;;;13.09;57.99
39455;BME280;25155;41.890;23.446;2022-11-11T12:17:32;92805.13;;;12.97;58.59
39455;BME280;25155;41.890;23.446;2022-11-11T12:20:10;92804.59;;;13.00;58.98
39455;BME280;25155;41.890;23.446;2022-11-11T12:22:53;92817.41;;;12.91;59.09
39455;BME280;25155;41.890;23.446;2022-11-11T12:25:35;92813.44;;;12.84;59.45
39455;BME280;25155;41.890;23.446;2022-11-11T12:28:11;92819.72;;;12.83;59.50
39455;BME280;25155;41.890;23.446;2022-11-11T12:30:47;92817.59;;;12.74;60.21
39455;BME280;25155;41.890;23.446;2022-11-11T12:33:37;92817.47;;;12.54;60.69
39455;BME280;25155;41.890;23.446;2022-11-11T12:36:13;92819.81;;;12.55;60.45
39455;BME280;25155;41.890;23.446;2022-11-11T12:38:49;92814.81;;;12.49;60.38
39455;BME280;25155;41.890;23.446;2022-11-11T12:41:40;92823.16;;;12.46;60.57
39455;BME280;25155;41.890;23.446;2022-11-11T12:44:11;92813.97;;;12.38;60.71
39455;BME280;25155;41.890;23.446;2022-11-11T12:46:49;92812.03;;;12.23;61.10
39455;BME280;25155;41.890;23.446;2022-11-11T12:49:44;92811.44;;;12.16;61.18
39455;BME280;25155;41.890;23.446;2022-11-11T12:52:26;92808.09;;;12.21;61.54
39455;BME280;25155;41.890;23.446;2022-11-11T12:55:12;92811.50;;;12.26;60.98
39455;BME280;25155;41.890;23.446;2022-11-11T12:57:54;92810.25;;;12.29;60.93
39455;BME280;25155;41.890;23.446;2022-11-11T13:00:24;92802.94;;;12.36;60.25
39455;BME280;25155;41.890;23.446;2022-11-11T13:03:04;92806.94;;;12.44;60.06
39455;BME280;25155;41.890;23.446;2022-11-11T13:05:37;92816.91;;;12.47;59.67
39455;BME280;25155;41.890;23.446;2022-11-11T13:08:25;92816.72;;;12.59;59.81
39455;BME280;25155;41.890;23.446;2022-11-11T13:11:01;92810.00;;;12.73;59.66
39455;BME280;25155;41.890;23.446;2022-11-11T13:13:43;92812.94;;;12.92;59.17
39455;BME280;25155;41.890;23.446;2022-11-11T13:16:16;92815.16;;;13.16;58.64
39455;BME280;25155;41.890;23.446;2022-11-11T13:18:52;92819.09;;;13.23;57.56
39455;BME280;25155;41.890;23.446;2022-11-11T13:21:23;92822.84;;;13.33;57.53
39455;BME280;25155;41.890;23.446;2022-11-11T13:23:52;92823.66;;;13.43;56.85
39455;BME280;25155;41.890;23.446;2022-11-11T13:26:26;92828.88;;;13.43;56.64
39455;BME280;25155;41.890;23.446;2022-11-11T13:29:09;92826.78;;;13.40;56.56
39455;BME280;25155;41.890;23.446;2022-11-11T13:31:41;92828.09;;;13.38;56.43
39455;BME280;25155;41.890;23.446;2022-11-11T13:34:12;92822.34;;;13.41;56.41
39455;BME280;25155;41.890;23.446;2022-11-11T13:36:42;92824.19;;;13.45;55.94